sim
Sign-in with your pilot id or email,
or register
Callsign
Passwort

Schedule Details

Flight Number: EWG9230
Departure: Dusseldorf International Airport (EDDL) at 12:15
Arrival: Gothenburg Landvetter Airport (ESGG) at 14:15
Route: Eurowings Passenger Schedule. Enter filed route here before submitting Pirep.

Weather Information
Getting current METAR information for EDDL 251320Z 18011KT 9999 -RA FEW020 SCT030 12/09 Q1002 NOSIG
Getting current METAR information for ESGG 251250Z 20019KT 9000 -RA BKN008 11/10 Q0998

Schedule Frequency

Route Map